createdAt,value
2022-10-23T00:01:47.199Z,101243.47
2022-10-23T00:04:17.591Z,101244.34
2022-10-23T00:06:46.072Z,101236.47
2022-10-23T00:09:17.555Z,101242.91
2022-10-23T00:11:48.587Z,101242.56
2022-10-23T00:14:17.422Z,101239.97
2022-10-23T00:16:46.189Z,101238.59
2022-10-23T00:19:14.152Z,101248.16
2022-10-23T00:21:42.119Z,101250.09
2022-10-23T00:26:43.349Z,101250.09
2022-10-23T00:29:12.898Z,101252.06
2022-10-23T00:31:40.735Z,101256.72
2022-10-23T00:34:09.209Z,101250.66
2022-10-23T00:36:37.524Z,101254.66
2022-10-23T00:39:05.701Z,101253.81
2022-10-23T00:41:33.615Z,101247.72
2022-10-23T00:44:06.602Z,101258.19
2022-10-23T00:46:36.115Z,101252.97
2022-10-23T00:49:05.416Z,101254.97
2022-10-23T00:51:37.066Z,101255.03
2022-10-23T00:54:23.417Z,101250.66
2022-10-23T00:56:53.333Z,101257.00
2022-10-23T00:59:21.478Z,101252.63
2022-10-23T01:01:50.859Z,101259.94
2022-10-23T01:04:18.957Z,101265.25
2022-10-23T01:06:53.940Z,101259.16
2022-10-23T01:09:27.443Z,101262.97
2022-10-23T01:11:59.418Z,101274.22
2022-10-23T01:18:59.931Z,101279.94
2022-10-23T01:21:36.191Z,101277.56
2022-10-23T01:24:21.523Z,101281.13
2022-10-23T01:27:05.295Z,101280.50
2022-10-23T01:29:38.757Z,101288.50
2022-10-23T01:32:11.221Z,101286.91
2022-10-23T01:34:45.371Z,101290.53
2022-10-23T01:37:15.390Z,101288.13
2022-10-23T01:39:48.100Z,101285.47
2022-10-23T01:42:20.308Z,101289.03
2022-10-23T01:44:52.894Z,101281.44
2022-10-23T01:47:29.582Z,101286.50
2022-10-23T01:50:05.318Z,101282.44
2022-10-23T01:52:34.274Z,101285.97
2022-10-23T01:55:05.077Z,101279.03
2022-10-23T01:57:36.139Z,101289.50
2022-10-23T02:00:09.424Z,101287.97
2022-10-23T02:02:53.099Z,101280.56
2022-10-23T02:05:26.062Z,101289.03
2022-10-23T02:07:54.566Z,101291.94
2022-10-23T02:10:23.227Z,101292.84
2022-10-23T02:12:56.552Z,101292.06
2022-10-23T02:15:30.742Z,101286.09
2022-10-23T02:18:05.347Z,101281.72
2022-10-23T02:20:38.075Z,101292.25
2022-10-23T02:23:16.359Z,101296.63
2022-10-23T02:25:48.653Z,101289.59
2022-10-23T02:28:20.468Z,101289.63
2022-10-23T02:30:51.220Z,101295.06
2022-10-23T02:33:19.630Z,101298.38
2022-10-23T02:35:48.639Z,101293.47
2022-10-23T02:38:31.231Z,101291.84
2022-10-23T02:41:05.657Z,101288.47
2022-10-23T02:43:41.352Z,101292.00
2022-10-23T02:46:18.318Z,101296.19
2022-10-23T02:48:49.783Z,101290.53
2022-10-23T02:51:23.794Z,101292.16
2022-10-23T02:56:38.706Z,101287.84
2022-10-23T02:59:12.337Z,101284.72
2022-10-23T03:01:47.108Z,101280.72
2022-10-23T03:04:16.180Z,101286.03
2022-10-23T03:06:44.095Z,101273.03
2022-10-23T03:09:16.791Z,101275.53
2022-10-23T03:11:44.721Z,101274.00
2022-10-23T03:14:14.117Z,101272.41
2022-10-23T03:16:43.332Z,101274.25
2022-10-23T03:21:45.525Z,101263.25
2022-10-23T03:24:13.583Z,101257.16
2022-10-23T03:26:44.340Z,101257.41
2022-10-23T03:29:12.296Z,101249.75
2022-10-23T03:31:47.356Z,101244.69
2022-10-23T03:34:16.705Z,101230.19
2022-10-23T03:36:44.617Z,101237.22
2022-10-23T03:39:12.591Z,101239.16
2022-10-23T03:41:40.471Z,101232.34
2022-10-23T03:44:08.884Z,101230.69
2022-10-23T03:46:36.772Z,101231.66
2022-10-23T03:49:06.454Z,101231.78
2022-10-23T03:51:34.325Z,101237.13
2022-10-23T03:54:02.210Z,101238.66
2022-10-23T03:56:30.098Z,101230.94
2022-10-23T03:58:58.211Z,101233.63
2022-10-23T04:01:27.489Z,101237.13
2022-10-23T04:03:55.925Z,101229.34
2022-10-23T04:06:27.224Z,101226.88
2022-10-23T04:08:57.939Z,101217.41
2022-10-23T04:11:26.522Z,101221.03
2022-10-23T04:13:54.555Z,101221.06
2022-10-23T04:16:24.370Z,101214.91
2022-10-23T04:18:52.311Z,101217.59
2022-10-23T04:21:20.230Z,101216.81
2022-10-23T04:23:49.598Z,101214.25
2022-10-23T04:26:19.299Z,101213.53
2022-10-23T04:28:47.275Z,101203.13
2022-10-23T04:31:15.158Z,101209.41
2022-10-23T04:33:44.325Z,101212.13
2022-10-23T04:36:26.307Z,101219.13
2022-10-23T04:38:55.707Z,101212.28
2022-10-23T04:41:23.881Z,101211.41
2022-10-23T04:43:51.917Z,101209.69
2022-10-23T04:46:20.069Z,101202.81
2022-10-23T04:48:49.532Z,101204.56
2022-10-23T04:51:35.854Z,101203.69
2022-10-23T04:54:36.888Z,101197.53
2022-10-23T04:57:21.562Z,101189.88
2022-10-23T04:59:57.449Z,101182.16
2022-10-23T05:02:25.729Z,101189.09
2022-10-23T05:04:54.562Z,101182.16
2022-10-23T05:07:34.474Z,101179.66
2022-10-23T05:10:26.943Z,101177.03
2022-10-23T05:13:06.603Z,101171.94
2022-10-23T05:15:34.593Z,101172.81
2022-10-23T05:18:05.529Z,101180.69
2022-10-23T05:20:35.849Z,101180.75
2022-10-23T05:23:04.160Z,101166.97
2022-10-23T05:25:36.813Z,101168.66
2022-10-23T05:28:16.282Z,101159.22
2022-10-23T05:30:44.422Z,101157.50
2022-10-23T05:33:12.794Z,101156.72
2022-10-23T05:35:44.054Z,101153.25
2022-10-23T05:38:13.671Z,101152.50
2022-10-23T05:40:43.430Z,101156.78
2022-10-23T05:43:16.482Z,101151.66
2022-10-23T05:45:53.729Z,101146.44
2022-10-23T05:48:40.115Z,101142.13
2022-10-23T05:51:20.155Z,101130.84
2022-10-23T05:53:54.405Z,101130.81
2022-10-23T05:56:41.558Z,101131.69
2022-10-23T05:59:17.887Z,101132.53
2022-10-23T06:02:08.556Z,101125.53
2022-10-23T06:04:48.852Z,101132.44
2022-10-23T06:07:33.587Z,101128.03
2022-10-23T06:10:06.629Z,101126.16
2022-10-23T06:12:40.159Z,101127.84
2022-10-23T06:15:11.288Z,101128.69
2022-10-23T06:18:11.773Z,101133.81
2022-10-23T06:20:50.607Z,101129.63
2022-10-23T06:23:25.945Z,101123.63
2022-10-23T06:26:20.508Z,101115.75
2022-10-23T06:28:56.903Z,101119.91
2022-10-23T06:31:26.855Z,101120.84
2022-10-23T06:33:56.310Z,101115.53
2022-10-23T06:36:24.811Z,101116.44
2022-10-23T06:38:56.570Z,101115.44
2022-10-23T06:41:39.724Z,101129.34
2022-10-23T06:44:10.180Z,101119.97
2022-10-23T06:46:49.749Z,101124.31
2022-10-23T06:49:36.055Z,101121.00
2022-10-23T06:52:04.794Z,101118.44
2022-10-23T06:54:32.851Z,101111.50
2022-10-23T06:57:22.278Z,101113.94
2022-10-23T06:59:51.923Z,101110.47
2022-10-23T07:02:19.929Z,101102.75
2022-10-23T07:04:48.720Z,101114.72
2022-10-23T07:07:19.941Z,101109.50
2022-10-23T07:09:49.952Z,101104.13
2022-10-23T07:12:24.655Z,101109.84
2022-10-23T07:15:09.709Z,101115.09
2022-10-23T07:17:37.689Z,101128.91
2022-10-23T07:20:06.468Z,101128.03
2022-10-23T07:22:35.427Z,101119.13
2022-10-23T07:25:10.549Z,101121.81
2022-10-23T07:27:40.107Z,101124.94
2022-10-23T07:30:13.534Z,101126.88
2022-10-23T07:32:49.394Z,101130.00
2022-10-23T07:35:38.514Z,101120.63
2022-10-23T07:38:24.239Z,101130.78
2022-10-23T07:40:57.606Z,101130.72
2022-10-23T07:43:26.134Z,101131.44
2022-10-23T07:45:55.876Z,101135.34
2022-10-23T07:48:32.591Z,101142.09
2022-10-23T07:51:11.417Z,101137.78
2022-10-23T07:53:45.070Z,101130.03
2022-10-23T07:56:26.145Z,101124.94
2022-10-23T07:59:13.808Z,101120.59
2022-10-23T08:01:47.196Z,101122.47
2022-10-23T08:04:15.766Z,101132.72
2022-10-23T08:06:52.426Z,101129.75
2022-10-23T08:09:21.154Z,101124.38
2022-10-23T08:11:49.338Z,101133.03
2022-10-23T08:14:20.172Z,101122.69
2022-10-23T08:16:50.479Z,101133.13
2022-10-23T08:19:18.722Z,101123.31
2022-10-23T08:21:48.366Z,101124.59
2022-10-23T08:24:17.930Z,101131.28
2022-10-23T08:26:50.304Z,101125.09
2022-10-23T08:29:20.526Z,101122.88
2022-10-23T08:31:54.191Z,101114.56
2022-10-23T08:34:28.786Z,101114.19
2022-10-23T08:36:57.141Z,101109.59
2022-10-23T08:39:25.376Z,101118.13
2022-10-23T08:42:19.604Z,101121.69
2022-10-23T08:44:55.027Z,101121.06
2022-10-23T08:47:29.910Z,101122.56
2022-10-23T08:50:27.241Z,101124.31
2022-10-23T08:53:01.352Z,101137.94
2022-10-23T08:55:32.481Z,101147.53
2022-10-23T08:58:03.536Z,101148.41
2022-10-23T09:00:31.998Z,101155.38
2022-10-23T09:03:03.247Z,101159.09
2022-10-23T09:05:33.272Z,101161.19
2022-10-23T09:08:09.742Z,101163.47
2022-10-23T09:10:56.422Z,101166.66
2022-10-23T09:13:41.904Z,101169.09
2022-10-23T09:16:18.634Z,101170.81
2022-10-23T09:18:49.806Z,101174.09
2022-10-23T09:21:17.958Z,101176.53
2022-10-23T09:23:45.862Z,101170.44
2022-10-23T09:26:16.207Z,101187.41
2022-10-23T09:28:47.796Z,101188.13
2022-10-23T09:31:16.172Z,101199.72
2022-10-23T09:33:57.156Z,101199.94
2022-10-23T09:36:26.002Z,101202.34
2022-10-23T09:38:55.828Z,101207.13
2022-10-23T09:41:26.253Z,101213.28
2022-10-23T09:44:08.459Z,101214.69
2022-10-23T09:46:39.444Z,101221.44
2022-10-23T09:49:16.717Z,101229.66
2022-10-23T09:51:55.410Z,101225.66
2022-10-23T09:54:24.494Z,101226.38
2022-10-23T09:56:53.009Z,101236.31
2022-10-23T09:59:25.195Z,101243.06
2022-10-23T10:01:54.629Z,101251.94
2022-10-23T10:04:52.944Z,101258.69
2022-10-23T10:07:22.570Z,101269.03
2022-10-23T10:09:50.929Z,101268.16
2022-10-23T10:12:45.974Z,101265.25
2022-10-23T10:15:21.142Z,101270.06
2022-10-23T10:17:56.786Z,101260.75
2022-10-23T10:20:37.327Z,101265.53
2022-10-23T10:23:08.499Z,101261.53
2022-10-23T10:25:39.029Z,101253.72
2022-10-23T10:28:17.788Z,101252.88
2022-10-23T10:30:51.442Z,101249.72
2022-10-23T10:33:23.620Z,101253.59
2022-10-23T10:35:55.713Z,101256.06
2022-10-23T10:38:36.661Z,101255.50
2022-10-23T10:41:22.450Z,101247.72
2022-10-23T10:43:59.792Z,101248.84
2022-10-23T10:46:32.971Z,101243.25
2022-10-23T10:49:01.849Z,101239.16
2022-10-23T10:52:00.743Z,101229.13
2022-10-23T10:54:37.705Z,101230.59
2022-10-23T10:57:10.643Z,101238.00
2022-10-23T10:59:41.714Z,101236.66
2022-10-23T11:02:25.173Z,101232.78
2022-10-23T11:04:54.813Z,101220.31
2022-10-23T11:07:28.146Z,101218.34
2022-10-23T11:09:57.326Z,101221.03
2022-10-23T11:12:27.229Z,101224.72
2022-10-23T11:14:55.177Z,101213.63
2022-10-23T11:17:27.304Z,101218.59
2022-10-23T11:20:00.866Z,101211.91
2022-10-23T11:22:35.492Z,101210.22
2022-10-23T11:25:19.246Z,101203.75
2022-10-23T11:28:03.389Z,101201.44
2022-10-23T11:30:37.359Z,101213.53
2022-10-23T11:33:43.910Z,101200.09
2022-10-23T11:36:15.541Z,101191.22
2022-10-23T11:38:46.023Z,101186.78
2022-10-23T11:41:26.425Z,101183.47
2022-10-23T11:43:57.416Z,101186.66
2022-10-23T11:46:36.856Z,101179.41
2022-10-23T11:49:06.598Z,101165.84
2022-10-23T11:51:36.236Z,101159.75
2022-10-23T11:54:24.618Z,101156.97
2022-10-23T11:56:56.040Z,101164.56
2022-10-23T11:59:28.606Z,101174.75
2022-10-23T12:01:57.632Z,101170.59
2022-10-23T12:04:28.011Z,101175.34
2022-10-23T12:06:59.887Z,101164.31
2022-10-23T12:09:32.138Z,101163.03
2022-10-23T12:12:16.343Z,101160.56
2022-10-23T12:14:46.708Z,101161.94
2022-10-23T12:17:39.992Z,101170.06
2022-10-23T12:20:24.774Z,101159.53
2022-10-23T12:23:09.460Z,101147.09
2022-10-23T12:25:46.907Z,101146.59
2022-10-23T12:28:24.698Z,101142.88
2022-10-23T12:30:57.741Z,101136.06
2022-10-23T12:33:30.348Z,101128.19
2022-10-23T12:36:12.838Z,101132.34
2022-10-23T12:38:45.785Z,101129.00
2022-10-23T12:41:17.574Z,101126.53
2022-10-23T12:43:54.195Z,101126.94
2022-10-23T12:46:34.248Z,101126.22
2022-10-23T12:49:04.462Z,101123.06
2022-10-23T12:51:33.958Z,101119.97
2022-10-23T12:54:02.206Z,101115.41
2022-10-23T12:56:37.181Z,101106.34
2022-10-23T12:59:06.167Z,101101.03
2022-10-23T13:01:35.651Z,101099.38
2022-10-23T13:04:12.881Z,101094.97
2022-10-23T13:06:41.320Z,101102.56
2022-10-23T13:09:25.898Z,101102.03
2022-10-23T13:12:32.690Z,101100.81
2022-10-23T13:15:03.508Z,101097.13
2022-10-23T13:17:36.214Z,101098.81
2022-10-23T13:20:11.036Z,101088.09
2022-10-23T13:22:41.891Z,101090.53
2022-10-23T13:25:24.252Z,101082.34
2022-10-23T13:28:06.465Z,101076.78
2022-10-23T13:30:38.026Z,101069.84
2022-10-23T13:33:15.316Z,101065.97
2022-10-23T13:35:43.765Z,101061.31
2022-10-23T13:38:11.899Z,101053.91
2022-10-23T13:40:39.839Z,101047.19
2022-10-23T13:43:14.982Z,101050.78
2022-10-23T13:45:43.011Z,101054.94
2022-10-23T13:48:13.701Z,101058.69
2022-10-23T13:50:41.810Z,101053.50
2022-10-23T13:53:10.342Z,101054.50
2022-10-23T13:55:40.463Z,101045.16
2022-10-23T13:58:11.323Z,101046.13
2022-10-23T14:00:39.755Z,101037.97
2022-10-23T14:03:07.725Z,101035.22
2022-10-23T14:05:35.644Z,101030.50
2022-10-23T14:08:03.568Z,101031.19
2022-10-23T14:10:31.576Z,101030.03
2022-10-23T14:13:00.585Z,101020.13
2022-10-23T14:15:29.911Z,101027.56
2022-10-23T14:17:59.489Z,101019.81
2022-10-23T14:20:28.936Z,101009.47
2022-10-23T14:22:57.132Z,101006.91
2022-10-23T14:25:25.300Z,101003.53
2022-10-23T14:27:53.257Z,100997.53
2022-10-23T14:30:21.228Z,100983.63
2022-10-23T14:32:50.889Z,100968.16
2022-10-23T14:35:18.804Z,100969.44
2022-10-23T14:37:46.925Z,100963.53
2022-10-23T14:40:15.121Z,100963.88
2022-10-23T14:42:43.123Z,100974.16
2022-10-23T14:45:11.859Z,100967.19
2022-10-23T14:47:39.803Z,100945.34
2022-10-23T14:50:11.555Z,100953.94
2022-10-23T14:52:39.482Z,100938.25
2022-10-23T14:55:07.944Z,100951.13
2022-10-23T14:57:35.959Z,100948.50
2022-10-23T15:00:04.155Z,100930.28
2022-10-23T15:02:32.121Z,100931.91
2022-10-23T15:05:00.064Z,100923.69
2022-10-23T15:07:29.467Z,100920.25
2022-10-23T15:10:05.029Z,100924.75
2022-10-23T15:12:34.361Z,100915.22
2022-10-23T15:15:02.256Z,100903.63
2022-10-23T15:17:31.974Z,100904.69
2022-10-23T15:19:59.885Z,100908.66
2022-10-23T15:22:29.229Z,100905.66
2022-10-23T15:25:00.203Z,100905.31
2022-10-23T15:27:28.151Z,100900.16
2022-10-23T15:29:56.041Z,100908.41
2022-10-23T15:32:23.943Z,100903.84
2022-10-23T15:34:53.698Z,100911.16
2022-10-23T15:37:21.790Z,100911.28
2022-10-23T15:39:51.074Z,100900.38
2022-10-23T15:42:19.298Z,100911.50
2022-10-23T15:44:47.810Z,100903.06
2022-10-23T15:47:15.692Z,100894.34
2022-10-23T15:49:43.647Z,100891.94
2022-10-23T15:52:11.767Z,100892.19
2022-10-23T15:54:39.916Z,100885.19
2022-10-23T15:57:09.158Z,100887.44
2022-10-23T15:59:37.232Z,100889.41
2022-10-23T16:02:05.382Z,100895.44
2022-10-23T16:04:34.136Z,100890.13
2022-10-23T16:07:02.061Z,100891.53
2022-10-23T16:09:30.621Z,100883.06
2022-10-23T16:11:58.537Z,100882.28
2022-10-23T16:14:27.825Z,100883.69
2022-10-23T16:16:55.730Z,100883.53
2022-10-23T16:19:23.657Z,100875.38
2022-10-23T16:21:51.668Z,100867.69
2022-10-23T16:24:19.595Z,100863.38
2022-10-23T16:26:52.941Z,100867.94
2022-10-23T16:29:21.985Z,100871.72
2022-10-23T16:31:51.392Z,100868.31
2022-10-23T16:34:19.462Z,100864.72
2022-10-23T16:36:47.777Z,100866.50
2022-10-23T16:39:22.710Z,100871.53
2022-10-23T16:42:09.541Z,100858.88
2022-10-23T16:44:59.222Z,100850.31
2022-10-23T16:47:28.507Z,100850.22
2022-10-23T16:49:56.402Z,100848.72
2022-10-23T16:52:24.375Z,100855.66
2022-10-23T16:54:52.224Z,100864.75
2022-10-23T16:57:20.342Z,100864.22
2022-10-23T16:59:48.303Z,100866.78
2022-10-23T17:02:16.361Z,100866.72
2022-10-23T17:04:45.769Z,100863.44
2022-10-23T17:07:14.058Z,100855.00
2022-10-23T17:09:42.237Z,100851.56
2022-10-23T17:12:10.196Z,100848.38
2022-10-23T17:14:38.738Z,100853.75
2022-10-23T17:17:06.944Z,100848.94
2022-10-23T17:19:50.295Z,100844.38
2022-10-23T17:22:19.651Z,100840.53
2022-10-23T17:24:50.250Z,100842.28
2022-10-23T17:27:21.179Z,100843.53
2022-10-23T17:29:49.102Z,100846.03
2022-10-23T17:32:17.103Z,100835.75
2022-10-23T17:34:46.470Z,100841.31
2022-10-23T17:37:14.474Z,100857.00
2022-10-23T17:39:46.859Z,100849.84
2022-10-23T17:42:14.873Z,100853.06
2022-10-23T17:44:42.894Z,100842.56
2022-10-23T17:47:10.818Z,100834.78
2022-10-23T17:49:40.631Z,100815.69
2022-10-23T17:52:14.238Z,100805.66
2022-10-23T17:54:42.181Z,100806.75
2022-10-23T17:57:11.535Z,100811.38
2022-10-23T17:59:39.544Z,100809.41
2022-10-23T18:02:08.209Z,100796.97
2022-10-23T18:04:36.159Z,100799.63
2022-10-23T18:07:04.131Z,100801.44
2022-10-23T18:09:32.076Z,100786.19
2022-10-23T18:12:00.296Z,100775.47
2022-10-23T18:14:29.930Z,100778.47
2022-10-23T18:16:57.892Z,100769.06
2022-10-23T18:19:25.790Z,100759.31
2022-10-23T18:21:53.911Z,100759.56
2022-10-23T18:24:23.635Z,100752.13
2022-10-23T18:26:51.638Z,100758.47
2022-10-23T18:29:20.691Z,100748.06
2022-10-23T18:31:50.568Z,100733.31
2022-10-23T18:34:19.643Z,100734.28
2022-10-23T18:36:47.914Z,100730.56
2022-10-23T18:39:18.555Z,100739.34
2022-10-23T18:41:46.835Z,100732.38
2022-10-23T18:44:16.870Z,100737.78
2022-10-23T18:46:45.059Z,100747.75
2022-10-23T18:49:14.663Z,100753.72
2022-10-23T18:51:42.610Z,100744.66
2022-10-23T18:54:12.722Z,100729.22
2022-10-23T18:56:40.793Z,100725.94
2022-10-23T18:59:12.850Z,100717.97
2022-10-23T19:01:40.946Z,100705.91
2022-10-23T19:04:10.325Z,100701.88
2022-10-23T19:06:39.890Z,100704.56
2022-10-23T19:09:09.177Z,100708.09
2022-10-23T19:11:37.174Z,100706.28
2022-10-23T19:14:05.638Z,100703.66
2022-10-23T19:16:37.036Z,100709.72
2022-10-23T19:19:06.823Z,100703.66
2022-10-23T19:21:37.613Z,100693.03
2022-10-23T19:24:09.965Z,100711.66
2022-10-23T19:26:39.030Z,100725.47
2022-10-23T19:29:07.811Z,100716.34
2022-10-23T19:31:35.741Z,100726.97
2022-10-23T19:34:03.626Z,100737.47
2022-10-23T19:36:32.778Z,100743.38
2022-10-23T19:39:00.646Z,100741.69
2022-10-23T19:41:31.072Z,100737.34
2022-10-23T19:43:58.991Z,100750.13
2022-10-23T19:46:27.121Z,100747.09
2022-10-23T19:48:55.025Z,100743.25
2022-10-23T19:51:22.870Z,100739.88
2022-10-23T19:56:23.545Z,100734.69
2022-10-23T19:58:53.138Z,100754.06
2022-10-23T20:01:22.686Z,100746.03
2022-10-23T20:03:50.912Z,100738.59
2022-10-23T20:06:21.113Z,100724.97
2022-10-23T20:08:49.022Z,100707.28
2022-10-23T20:11:20.764Z,100703.41
2022-10-23T20:13:49.087Z,100682.44
2022-10-23T20:16:19.721Z,100688.53
2022-10-23T20:18:47.708Z,100676.25
2022-10-23T20:21:15.802Z,100690.84
2022-10-23T20:23:44.133Z,100674.78
2022-10-23T20:26:15.961Z,100675.63
2022-10-23T20:28:46.883Z,100673.81
2022-10-23T20:31:16.112Z,100679.81
2022-10-23T20:33:45.430Z,100665.00
2022-10-23T20:36:24.408Z,100663.25
2022-10-23T20:38:52.723Z,100652.22
2022-10-23T20:41:20.999Z,100658.69
2022-10-23T20:43:48.915Z,100661.09
2022-10-23T20:46:16.826Z,100670.84
2022-10-23T20:48:46.431Z,100666.78
2022-10-23T20:51:15.589Z,100670.88
2022-10-23T20:53:44.723Z,100665.66
2022-10-23T20:56:14.994Z,100657.78
2022-10-23T20:58:42.988Z,100656.13
2022-10-23T21:01:14.305Z,100644.47
2022-10-23T21:03:42.319Z,100629.56
2022-10-23T21:06:13.179Z,100627.34
2022-10-23T21:08:41.852Z,100619.63
2022-10-23T21:11:12.136Z,100619.38
2022-10-23T21:13:40.113Z,100612.81
2022-10-23T21:16:13.523Z,100617.38
2022-10-23T21:18:46.060Z,100617.41
2022-10-23T21:21:17.357Z,100614.81
2022-10-23T21:23:45.218Z,100613.66
2022-10-23T21:26:13.948Z,100614.47
2022-10-23T21:28:47.410Z,100623.19
2022-10-23T21:31:24.175Z,100621.97
2022-10-23T21:33:53.819Z,100621.22
2022-10-23T21:36:24.321Z,100625.38
2022-10-23T21:38:53.788Z,100624.72
2022-10-23T21:41:23.814Z,100615.78
2022-10-23T21:43:54.393Z,100621.06
2022-10-23T21:46:23.002Z,100616.44
2022-10-23T21:48:51.251Z,100621.06
2022-10-23T21:51:24.549Z,100628.59
2022-10-23T21:53:53.289Z,100629.47
2022-10-23T21:56:27.675Z,100636.75
2022-10-23T21:58:55.689Z,100628.13
2022-10-23T22:01:23.575Z,100631.47
2022-10-23T22:03:51.660Z,100633.28
2022-10-23T22:06:20.688Z,100615.06
2022-10-23T22:08:50.415Z,100608.16
2022-10-23T22:11:18.731Z,100615.00
2022-10-23T22:13:46.966Z,100614.09
2022-10-23T22:16:15.768Z,100616.88
2022-10-23T22:18:44.295Z,100611.94
2022-10-23T22:21:13.794Z,100601.16
2022-10-23T22:23:42.095Z,100605.78
2022-10-23T22:26:20.569Z,100596.13
2022-10-23T22:28:48.617Z,100592.47
2022-10-23T22:31:17.579Z,100596.94
2022-10-23T22:33:45.481Z,100585.72
2022-10-23T22:36:13.464Z,100589.31
2022-10-23T22:38:41.824Z,100580.81
2022-10-23T22:41:11.465Z,100581.59
2022-10-23T22:43:39.533Z,100573.53
2022-10-23T22:46:09.109Z,100574.50
2022-10-23T22:48:37.499Z,100567.78
2022-10-23T22:51:08.381Z,100565.19
2022-10-23T22:53:37.322Z,100567.78
2022-10-23T22:56:07.026Z,100564.09
2022-10-23T22:58:36.483Z,100563.66
2022-10-23T23:01:08.367Z,100555.78
2022-10-23T23:03:36.745Z,100549.03
2022-10-23T23:06:05.971Z,100557.72
2022-10-23T23:08:34.462Z,100558.19
2022-10-23T23:11:02.434Z,100553.72
2022-10-23T23:13:30.599Z,100546.00
2022-10-23T23:16:00.010Z,100544.06
2022-10-23T23:18:27.938Z,100549.84
2022-10-23T23:20:55.808Z,100544.66
2022-10-23T23:23:23.853Z,100542.91
2022-10-23T23:25:51.698Z,100536.72
2022-10-23T23:28:20.775Z,100528.75
2022-10-23T23:30:49.384Z,100536.56
2022-10-23T23:33:20.009Z,100549.34
2022-10-23T23:35:48.374Z,100540.50
2022-10-23T23:38:16.240Z,100549.91
2022-10-23T23:40:51.007Z,100555.81
2022-10-23T23:43:19.061Z,100546.34
2022-10-23T23:45:46.923Z,100550.31
2022-10-23T23:48:14.744Z,100541.06
2022-10-23T23:50:43.939Z,100545.38
2022-10-23T23:53:11.763Z,100530.66
2022-10-23T23:55:39.685Z,100535.03
2022-10-23T23:58:07.533Z,100537.00
